Time;durP1;ratioP1;P1;durP2;ratioP2;P2;SDS_P1;SDS_P2;PMS_P1;PMS_P2;Temp;Humidity;BMP_temperature;BMP_pressure;BME280_temperature;BME280_humidity;BME280_pressure;Samples;Min_cycle;Max_cycle;Signal;HPM_P1;HPM_P2
2023/03/09 00:00:45;;;;;;;5.10;1.65;;;9.20;99.90;;;;;;5022221;28;20029;-72
2023/03/09 00:03:15;;;;;;;5.25;2.10;;;9.20;99.90;;;;;;5017773;28;20068;-72
2023/03/09 00:05:54;;;;;;;4.32;1.95;;;9.20;99.90;;;;;;5012380;28;20504;-72
2023/03/09 00:08:20;;;;;;;5.00;1.85;;;9.30;99.90;;;;;;5015226;28;20041;-72
2023/03/09 00:10:48;;;;;;;6.50;2.03;;;9.30;99.90;;;;;;5017751;28;20040;-72
2023/03/09 00:13:13;;;;;;;4.97;1.77;;;9.50;99.90;;;;;;5009350;28;20435;-72
2023/03/09 00:15:39;;;;;;;7.07;2.00;;;9.50;99.90;;;;;;5009545;28;20133;-71
2023/03/09 00:18:04;;;;;;;7.68;2.03;;;9.50;99.90;;;;;;5010126;28;20038;-72
2023/03/09 00:20:30;;;;;;;8.68;2.65;;;9.60;99.90;;;;;;5000124;28;20124;-72
2023/03/09 00:22:56;;;;;;;6.15;2.22;;;9.60;99.90;;;;;;5009125;28;20478;-72
2023/03/09 00:25:22;;;;;;;7.97;2.00;;;9.50;99.90;;;;;;5009207;28;20045;-72
2023/03/09 00:27:50;;;;;;;6.28;2.53;;;9.60;99.90;;;;;;5007878;28;20029;-72
2023/03/09 00:30:19;;;;;;;6.90;2.35;;;9.60;99.90;;;;;;5010015;28;20101;-72
2023/03/09 00:32:45;;;;;;;5.32;1.90;;;9.50;99.90;;;;;;5013431;28;20038;-71
2023/03/09 00:35:12;;;;;;;5.68;2.03;;;9.60;99.90;;;;;;5026730;28;20099;-71
2023/03/09 00:37:38;;;;;;;9.45;2.20;;;9.70;99.90;;;;;;5010982;28;20025;-72
2023/03/09 00:40:09;;;;;;;9.23;2.00;;;9.60;99.90;;;;;;5014484;28;20108;-72
2023/03/09 00:42:36;;;;;;;7.38;2.10;;;9.70;99.90;;;;;;5010251;28;20021;-72
2023/03/09 00:45:02;;;;;;;5.97;1.95;;;9.70;99.90;;;;;;5009775;28;20053;-71
2023/03/09 00:47:28;;;;;;;5.28;1.88;;;9.80;99.90;;;;;;5009010;28;20030;-72
2023/03/09 00:49:53;;;;;;;8.25;2.08;;;9.80;99.90;;;;;;5009369;28;20472;-72
2023/03/09 00:52:19;;;;;;;5.50;1.58;;;9.70;99.90;;;;;;5008567;28;20038;-72
2023/03/09 00:54:45;;;;;;;6.03;1.08;;;9.80;99.90;;;;;;5009317;28;20109;-71
2023/03/09 00:57:10;;;;;;;2.25;0.88;;;10.10;99.90;;;;;;5008929;28;20022;-72
2023/03/09 00:59:36;;;;;;;4.32;0.55;;;10.10;99.90;;;;;;5008835;28;20032;-71
2023/03/09 01:02:01;;;;;;;0.93;0.40;;;10.20;99.90;;;;;;4990190;28;20060;-72
2023/03/09 01:04:27;;;;;;;1.38;0.20;;;10.20;99.90;;;;;;5008652;28;20026;-72
2023/03/09 01:06:54;;;;;;;2.05;0.30;;;10.20;99.90;;;;;;5009401;28;20038;-72
2023/03/09 01:09:20;;;;;;;0.70;0.30;;;10.30;99.90;;;;;;4991435;28;20599;-72
2023/03/09 01:11:46;;;;;;;4.43;0.50;;;10.40;99.90;;;;;;5008299;28;20092;-72
2023/03/09 01:14:11;;;;;;;3.00;0.50;;;10.30;99.90;;;;;;5008759;28;20084;-72
2023/03/09 01:16:37;;;;;;;1.27;0.50;;;10.10;99.90;;;;;;5008747;28;20037;-72
2023/03/09 01:19:06;;;;;;;1.98;0.40;;;10.00;99.90;;;;;;5009042;28;20072;-71
2023/03/09 01:21:31;;;;;;;1.27;0.52;;;9.90;99.90;;;;;;5008748;28;20121;-71
2023/03/09 01:23:57;;;;;;;1.75;0.65;;;9.90;99.90;;;;;;5008514;28;20097;-71
2023/03/09 01:26:23;;;;;;;3.75;0.60;;;9.90;99.90;;;;;;5011600;28;20033;-72
2023/03/09 01:28:48;;;;;;;5.30;0.50;;;9.80;99.90;;;;;;5009281;28;20022;-71
2023/03/09 01:31:15;;;;;;;1.80;0.50;;;9.70;99.90;;;;;;5009076;28;20061;-71
2023/03/09 01:33:42;;;;;;;1.63;0.75;;;9.80;99.90;;;;;;5007660;28;20524;-72
2023/03/09 01:36:11;;;;;;;1.02;0.73;;;9.70;99.90;;;;;;5009004;28;20029;-71
2023/03/09 01:38:37;;;;;;;1.25;0.45;;;9.70;99.90;;;;;;5008048;28;20026;-71
2023/03/09 01:41:03;;;;;;;2.08;0.40;;;9.70;99.90;;;;;;5009797;28;20414;-72
2023/03/09 01:43:41;;;;;;;1.48;0.20;;;9.60;99.90;;;;;;5007485;28;20034;-72
2023/03/09 01:46:25;;;;;;;1.60;0.17;;;9.70;99.90;;;;;;5009254;28;20026;-71
2023/03/09 01:48:50;;;;;;;1.00;0.35;;;9.80;99.90;;;;;;5007779;28;20068;-71
2023/03/09 01:51:21;;;;;;;1.80;0.30;;;9.70;99.90;;;;;;5008688;28;20029;-72
2023/03/09 01:53:48;;;;;;;;;;;9.70;99.90;;;;;;5008670;28;20045;-71
2023/03/09 01:56:16;;;;;;;1.92;0.20;;;9.50;99.90;;;;;;5011811;28;19917;-71
2023/03/09 01:58:41;;;;;;;1.73;0.30;;;9.50;99.90;;;;;;5016766;28;20018;-71
2023/03/09 02:01:09;;;;;;;0.77;0.13;;;9.50;99.90;;;;;;5013287;28;20034;-72
2023/03/09 02:03:40;;;;;;;0.98;0.30;;;9.40;99.90;;;;;;5011201;28;20742;-72
2023/03/09 02:06:17;;;;;;;1.73;0.20;;;9.40;99.90;;;;;;5005997;28;20117;-72
2023/03/09 02:08:58;;;;;;;0.20;0.10;;;9.40;99.90;;;;;;5005932;28;20125;-71
2023/03/09 02:11:24;;;;;;;0.47;0.10;;;9.30;99.90;;;;;;5003273;28;20034;-72
2023/03/09 02:13:51;;;;;;;0.32;0.10;;;9.30;99.90;;;;;;5026067;28;20436;-71
2023/03/09 02:16:17;;;;;;;2.08;0.10;;;9.20;99.90;;;;;;5028695;28;20028;-71
2023/03/09 02:18:43;;;;;;;0.57;0.10;;;9.20;99.90;;;;;;5017235;28;20110;-72
2023/03/09 02:21:42;;;;;;;0.57;0.03;;;9.10;99.90;;;;;;5016799;28;20080;-72
2023/03/09 02:24:25;;;;;;;0.75;0.10;;;9.10;99.90;;;;;;5014527;28;20026;-72
2023/03/09 02:27:21;;;;;;;0.30;0.10;;;9.10;99.90;;;;;;4995043;28;20480;-72
2023/03/09 02:29:47;;;;;;;1.92;0.10;;;9.20;99.90;;;;;;5019804;28;20133;-72
2023/03/09 02:32:13;;;;;;;2.30;0.20;;;9.10;99.90;;;;;;5030270;28;20477;-72
2023/03/09 02:34:39;;;;;;;0.77;0.08;;;9.10;99.90;;;;;;5012558;28;20078;-72
2023/03/09 02:37:33;;;;;;;0.10;0.00;;;9.00;99.90;;;;;;5026046;28;20034;-71
2023/03/09 02:40:18;;;;;;;1.25;0.20;;;9.10;99.90;;;;;;5014989;28;20036;-72
2023/03/09 02:42:47;;;;;;;0.55;0.20;;;9.00;99.90;;;;;;5007807;28;20040;-72
2023/03/09 02:45:16;;;;;;;0.50;0.13;;;9.00;99.90;;;;;;5016768;28;20366;-72
2023/03/09 02:47:41;;;;;;;0.68;0.03;;;9.10;99.90;;;;;;5029590;28;20477;-72
2023/03/09 02:50:09;;;;;;;0.32;0.10;;;9.00;99.90;;;;;;5020191;28;20077;-72
2023/03/09 02:52:36;;;;;;;7.32;0.20;;;9.00;99.90;;;;;;5026872;28;20029;-72
2023/03/09 02:55:02;;;;;;;1.88;0.10;;;8.90;99.90;;;;;;5027307;28;20035;-72
2023/03/09 02:57:28;;;;;;;0.57;0.20;;;8.90;99.90;;;;;;5030108;28;20377;-73
2023/03/09 02:59:54;;;;;;;0.52;0.20;;;8.70;99.90;;;;;;5028364;28;20041;-72
2023/03/09 03:02:19;;;;;;;1.50;0.22;;;8.70;99.90;;;;;;4998415;28;20037;-72
2023/03/09 03:04:45;;;;;;;0.63;0.10;;;8.80;99.90;;;;;;5022966;28;20285;-72
2023/03/09 03:07:10;;;;;;;0.25;0.05;;;8.90;99.90;;;;;;5023090;28;20068;-72
2023/03/09 03:09:36;;;;;;;1.08;0.10;;;8.80;99.90;;;;;;5018835;28;20125;-72
2023/03/09 03:12:02;;;;;;;1.55;0.10;;;8.80;99.90;;;;;;5012939;28;20444;-72
2023/03/09 03:14:28;;;;;;;0.30;0.10;;;8.80;99.90;;;;;;5011514;28;20064;-72
2023/03/09 03:16:54;;;;;;;1.85;0.10;;;8.60;99.90;;;;;;4992436;28;20088;-72
2023/03/09 03:19:20;;;;;;;0.45;0.17;;;8.70;99.90;;;;;;4993315;28;20033;-72
2023/03/09 03:21:47;;;;;;;1.17;0.10;;;8.60;99.90;;;;;;5009747;28;20061;-72
2023/03/09 03:24:13;;;;;;;0.20;0.08;;;8.70;99.90;;;;;;5010510;28;20030;-72
2023/03/09 03:26:39;;;;;;;0.40;0.10;;;8.50;99.90;;;;;;5009025;28;20034;-72
2023/03/09 03:29:05;;;;;;;2.47;0.15;;;8.50;99.90;;;;;;5010898;28;20454;-72
2023/03/09 03:31:30;;;;;;;0.38;0.08;;;8.50;99.90;;;;;;4989888;28;20132;-72
2023/03/09 03:33:56;;;;;;;0.50;0.20;;;8.50;99.90;;;;;;4991882;28;20084;-72
2023/03/09 03:36:22;;;;;;;1.08;0.10;;;8.50;99.90;;;;;;5010920;28;20032;-72
2023/03/09 03:38:47;;;;;;;0.80;0.30;;;8.60;99.90;;;;;;5010187;28;20076;-71
2023/03/09 03:41:13;;;;;;;0.38;0.10;;;8.50;99.90;;;;;;5010073;28;20037;-72
2023/03/09 03:43:39;;;;;;;1.58;0.10;;;8.30;99.90;;;;;;5010467;28;20030;-73
2023/03/09 03:46:04;;;;;;;2.47;0.05;;;8.40;99.90;;;;;;5023577;28;20443;-72
2023/03/09 03:48:30;;;;;;;1.02;0.22;;;8.50;99.90;;;;;;5010059;28;20054;-73
2023/03/09 03:50:56;;;;;;;0.50;0.10;;;8.40;99.90;;;;;;5011150;28;20096;-73
2023/03/09 03:53:21;;;;;;;0.80;0.20;;;8.50;99.90;;;;;;5010718;28;20025;-72
2023/03/09 03:55:47;;;;;;;0.80;0.20;;;8.40;99.90;;;;;;5008201;28;20821;-72
2023/03/09 03:58:13;;;;;;;0.93;0.20;;;8.40;99.90;;;;;;5010587;28;20022;-73
2023/03/09 04:00:38;;;;;;;0.52;0.20;;;8.40;99.90;;;;;;5009342;28;20138;-72
2023/03/09 04:03:04;;;;;;;1.60;0.25;;;8.40;99.90;;;;;;5009978;28;20151;-72
2023/03/09 04:05:30;;;;;;;0.60;0.13;;;8.40;99.90;;;;;;5009077;28;20030;-73
2023/03/09 04:07:55;;;;;;;0.32;0.10;;;8.30;99.90;;;;;;5009986;28;20062;-72
2023/03/09 04:10:23;;;;;;;1.00;0.28;;;8.30;99.90;;;;;;5008963;28;20034;-72
2023/03/09 04:12:49;;;;;;;0.52;0.20;;;8.20;99.90;;;;;;5017906;28;20037;-72
2023/03/09 04:15:15;;;;;;;0.28;0.08;;;8.30;99.90;;;;;;5018470;28;20025;-73
2023/03/09 04:17:41;;;;;;;0.85;0.20;;;8.20;99.90;;;;;;5009159;28;20386;-73
2023/03/09 04:20:07;;;;;;;0.85;0.55;;;8.30;99.90;;;;;;5012118;28;20164;-73
2023/03/09 04:22:33;;;;;;;2.05;0.30;;;8.20;99.90;;;;;;5007243;28;20375;-73
2023/03/09 04:24:59;;;;;;;1.00;0.30;;;8.10;99.90;;;;;;5020788;28;20174;-72
2023/03/09 04:27:24;;;;;;;1.05;0.20;;;8.10;99.90;;;;;;5009745;28;20030;-72
2023/03/09 04:29:50;;;;;;;2.10;0.20;;;8.20;99.90;;;;;;5014331;28;20126;-72
2023/03/09 04:32:16;;;;;;;1.52;0.30;;;8.10;99.90;;;;;;5012550;28;20470;-73
2023/03/09 04:34:41;;;;;;;1.38;0.30;;;8.20;99.90;;;;;;5019958;28;20320;-72
2023/03/09 04:37:07;;;;;;;0.68;0.28;;;8.30;99.90;;;;;;5012759;28;20030;-73
2023/03/09 04:39:33;;;;;;;1.95;0.32;;;8.30;99.90;;;;;;5008085;28;20026;-74
2023/03/09 04:41:58;;;;;;;4.63;0.47;;;8.30;99.90;;;;;;5008473;28;20473;-73
2023/03/09 04:44:24;;;;;;;0.95;0.20;;;8.20;99.90;;;;;;5007133;28;20745;-73
2023/03/09 04:46:49;;;;;;;1.73;0.40;;;8.20;99.90;;;;;;5014177;28;20029;-73
2023/03/09 04:49:15;;;;;;;1.83;0.50;;;8.10;99.90;;;;;;5026434;28;20049;-73
2023/03/09 04:51:41;;;;;;;1.33;0.40;;;8.10;99.90;;;;;;5014314;28;20037;-73
2023/03/09 04:54:06;;;;;;;2.92;0.40;;;8.10;99.90;;;;;;5007627;28;20114;-73
2023/03/09 04:56:32;;;;;;;2.70;0.30;;;8.10;99.90;;;;;;5014457;28;20523;-73
2023/03/09 04:58:58;;;;;;;3.50;0.43;;;8.10;99.90;;;;;;4996275;28;20128;-71
2023/03/09 05:01:23;;;;;;;1.35;0.35;;;8.20;99.90;;;;;;5017135;28;20040;-71
2023/03/09 05:03:49;;;;;;;5.00;0.50;;;8.10;99.90;;;;;;5013605;28;20028;-71
2023/03/09 05:06:15;;;;;;;3.60;0.40;;;8.00;99.90;;;;;;5017999;28;20037;-73
2023/03/09 05:08:40;;;;;;;5.53;0.60;;;8.00;99.90;;;;;;4997843;28;20033;-72
2023/03/09 05:11:06;;;;;;;2.83;0.70;;;8.00;99.90;;;;;;5023526;28;20034;-71
2023/03/09 05:13:32;;;;;;;2.83;0.40;;;8.10;99.90;;;;;;5017095;28;20466;-72
2023/03/09 05:15:57;;;;;;;6.35;1.23;;;7.90;99.90;;;;;;5008557;28;20032;-71
2023/03/09 05:18:23;;;;;;;5.50;1.00;;;8.10;99.90;;;;;;5008978;28;20038;-71
2023/03/09 05:20:49;;;;;;;7.30;1.05;;;8.20;99.90;;;;;;5009784;28;20112;-71
2023/03/09 05:23:14;;;;;;;5.35;1.30;;;8.10;99.90;;;;;;5019286;28;20030;-71
2023/03/09 05:25:40;;;;;;;7.13;0.98;;;8.10;99.90;;;;;;5026578;28;20108;-71
2023/03/09 05:28:06;;;;;;;7.72;1.00;;;8.20;99.90;;;;;;5011453;28;20030;-72
2023/03/09 05:30:32;;;;;;;5.63;1.10;;;8.20;99.90;;;;;;5012887;28;20083;-70
2023/03/09 05:32:57;;;;;;;7.97;1.08;;;8.20;99.90;;;;;;5026201;28;20045;-71
2023/03/09 05:35:23;;;;;;;7.43;1.42;;;8.10;99.90;;;;;;5026987;28;20107;-70
2023/03/09 05:37:49;;;;;;;6.97;1.30;;;8.30;99.90;;;;;;5019892;28;20037;-71
2023/03/09 05:40:17;;;;;;;9.10;1.33;;;8.20;99.90;;;;;;4998519;28;20040;-71
2023/03/09 05:42:43;;;;;;;8.13;1.50;;;8.30;99.90;;;;;;5025959;28;20027;-70
2023/03/09 05:45:09;;;;;;;6.75;1.40;;;8.20;99.90;;;;;;5025007;28;20026;-71
2023/03/09 05:47:35;;;;;;;10.20;1.70;;;8.30;99.90;;;;;;5023269;28;20186;-70
2023/03/09 05:50:01;;;;;;;9.77;1.67;;;8.20;99.90;;;;;;5007822;28;20058;-70
2023/03/09 05:52:27;;;;;;;13.57;1.50;;;8.10;99.90;;;;;;5007345;28;20045;-71
2023/03/09 05:54:53;;;;;;;7.60;1.90;;;8.30;99.90;;;;;;5012836;28;20095;-70
2023/03/09 05:57:18;;;;;;;7.53;1.35;;;8.10;99.90;;;;;;5026255;28;20036;-71
2023/03/09 05:59:47;;;;;;;12.57;1.83;;;8.30;99.90;;;;;;5013015;28;20033;-71
2023/03/09 06:02:12;;;;;;;15.68;1.90;;;8.20;99.90;;;;;;5008978;28;20383;-71
2023/03/09 06:04:38;;;;;;;11.20;1.95;;;8.10;99.90;;;;;;5011884;28;20080;-72
2023/03/09 06:07:04;;;;;;;7.30;1.60;;;8.10;99.90;;;;;;5020848;28;20037;-71
2023/03/09 06:09:29;;;;;;;13.07;1.98;;;8.10;99.90;;;;;;5009305;28;20044;-72
2023/03/09 06:11:55;;;;;;;10.55;2.22;;;8.20;99.90;;;;;;5019250;28;20601;-72
2023/03/09 06:14:20;;;;;;;17.20;1.75;;;8.20;99.90;;;;;;5005441;28;20076;-71
2023/03/09 06:16:46;;;;;;;9.35;1.50;;;8.10;99.90;;;;;;5009869;28;20030;-71
2023/03/09 06:19:12;;;;;;;12.65;1.80;;;8.10;99.90;;;;;;5010283;28;20073;-71
2023/03/09 06:21:37;;;;;;;11.32;1.50;;;8.20;99.90;;;;;;5011805;28;20149;-71
2023/03/09 06:24:03;;;;;;;13.70;1.65;;;8.20;99.90;;;;;;5010759;28;20488;-72
2023/03/09 06:26:29;;;;;;;10.02;1.55;;;8.20;99.90;;;;;;5009720;28;20038;-71
2023/03/09 06:28:55;;;;;;;7.15;1.60;;;8.20;99.90;;;;;;4996598;28;20363;-71
2023/03/09 06:31:20;;;;;;;6.80;1.75;;;8.10;99.90;;;;;;5024344;28;20385;-71
2023/03/09 06:33:46;;;;;;;11.93;1.48;;;8.10;99.90;;;;;;5006954;28;20037;-71
2023/03/09 06:36:15;;;;;;;14.85;2.20;;;8.10;99.90;;;;;;5011614;28;20033;-71
2023/03/09 06:38:41;;;;;;;10.00;1.85;;;8.20;99.90;;;;;;4993185;28;20036;-72
2023/03/09 06:41:07;;;;;;;12.55;2.17;;;8.20;99.90;;;;;;5024676;28;20592;-71
2023/03/09 06:43:33;;;;;;;14.05;2.10;;;8.10;99.90;;;;;;5010025;28;20113;-70
2023/03/09 06:45:59;;;;;;;10.93;1.80;;;8.10;99.90;;;;;;5009508;28;20060;-72
2023/03/09 06:48:26;;;;;;;10.02;1.92;;;8.30;99.90;;;;;;5016205;28;20053;-72
2023/03/09 06:50:51;;;;;;;15.20;1.80;;;8.30;99.90;;;;;;5016413;28;20030;-71
2023/03/09 06:53:17;;;;;;;12.43;1.83;;;8.40;99.90;;;;;;5014334;28;20048;-70
2023/03/09 06:55:43;;;;;;;9.05;1.70;;;8.40;99.90;;;;;;5009596;28;20030;-70
2023/03/09 06:58:09;;;;;;;8.77;1.55;;;8.50;99.90;;;;;;5018347;28;20030;-71
2023/03/09 07:00:37;;;;;;;9.88;1.73;;;8.40;99.90;;;;;;5019944;28;20044;-71
2023/03/09 07:03:04;;;;;;;12.05;2.03;;;8.50;99.90;;;;;;5010625;28;20124;-72
2023/03/09 07:05:30;;;;;;;11.85;1.77;;;8.50;99.90;;;;;;5009332;28;20033;-71
2023/03/09 07:07:55;;;;;;;12.70;2.13;;;8.50;99.90;;;;;;5007531;28;20074;-71
2023/03/09 07:10:21;;;;;;;16.15;2.13;;;8.60;99.90;;;;;;5014220;28;20041;-71
2023/03/09 07:12:49;;;;;;;9.57;1.90;;;8.70;99.90;;;;;;5014196;28;20454;-70
2023/03/09 07:15:16;;;;;;;13.35;2.00;;;8.70;99.90;;;;;;5006773;28;20038;-71
2023/03/09 07:17:44;;;;;;;9.68;2.10;;;8.70;99.90;;;;;;5006084;28;20076;-70
2023/03/09 07:20:11;;;;;;;12.02;2.22;;;8.80;99.90;;;;;;5014724;28;20125;-70
2023/03/09 07:22:37;;;;;;;11.43;1.73;;;8.70;99.90;;;;;;5005812;28;20034;-71
2023/03/09 07:25:03;;;;;;;12.32;2.15;;;8.70;99.90;;;;;;5015270;28;20095;-71
2023/03/09 07:27:30;;;;;;;9.23;1.67;;;8.80;99.90;;;;;;5008261;28;20103;-71
2023/03/09 07:29:55;;;;;;;15.52;2.17;;;8.70;99.90;;;;;;5006323;28;20033;-70
2023/03/09 07:32:21;;;;;;;12.60;1.90;;;8.80;99.90;;;;;;5014286;28;20034;-71
2023/03/09 07:34:46;;;;;;;12.77;1.50;;;9.00;99.90;;;;;;5010663;28;20033;-69
2023/03/09 07:37:12;;;;;;;13.38;1.92;;;8.90;99.90;;;;;;5015924;28;20474;-71
2023/03/09 07:39:38;;;;;;;13.98;2.05;;;9.20;99.90;;;;;;4995146;28;20030;-70
2023/03/09 07:42:04;;;;;;;9.18;1.90;;;9.20;99.90;;;;;;4994383;28;20798;-71
2023/03/09 07:44:32;;;;;;;9.93;1.65;;;9.10;99.90;;;;;;5003732;28;20034;-71
2023/03/09 07:46:57;;;;;;;11.35;2.10;;;9.00;99.90;;;;;;5004659;28;20026;-70
2023/03/09 07:49:23;;;;;;;9.48;2.03;;;9.20;99.90;;;;;;4992533;28;20046;-72
2023/03/09 07:51:49;;;;;;;8.20;1.65;;;9.40;99.90;;;;;;5009821;28;20037;-69
2023/03/09 07:54:14;;;;;;;10.50;1.92;;;9.50;99.90;;;;;;5010480;28;20049;-70
2023/03/09 07:56:41;;;;;;;9.65;1.40;;;9.60;99.90;;;;;;5007911;28;20702;-70
2023/03/09 07:59:06;;;;;;;8.25;1.48;;;9.60;99.90;;;;;;5008761;28;20144;-70
2023/03/09 08:01:32;;;;;;;6.93;1.38;;;9.60;99.90;;;;;;5010642;28;20065;-72
2023/03/09 08:03:58;;;;;;;9.80;1.45;;;9.50;99.90;;;;;;5008447;28;20030;-71
2023/03/09 08:06:25;;;;;;;6.30;1.15;;;9.50;99.90;;;;;;5006302;28;20041;-71
2023/03/09 08:08:51;;;;;;;8.02;1.23;;;9.50;99.90;;;;;;5005964;28;20022;-71
2023/03/09 08:11:17;;;;;;;5.68;1.20;;;9.70;99.90;;;;;;5008872;28;20037;-71
2023/03/09 08:13:44;;;;;;;11.32;1.95;;;9.70;99.90;;;;;;5004028;28;20061;-69
2023/03/09 08:16:11;;;;;;;8.88;1.50;;;9.60;99.90;;;;;;5008991;28;20058;-70
2023/03/09 08:18:36;;;;;;;8.55;1.27;;;9.70;99.90;;;;;;5002091;28;20152;-70
2023/03/09 08:21:13;;;;;;;7.05;1.38;;;9.80;99.90;;;;;;5012023;28;20250;-70
2023/03/09 08:23:40;;;;;;;5.93;1.38;;;9.90;99.90;;;;;;5019261;28;20787;-71
2023/03/09 08:26:14;;;;;;;15.52;1.35;;;10.00;99.90;;;;;;5012734;28;20065;-71
2023/03/09 08:28:41;;;;;;;4.63;0.90;;;10.20;99.90;;;;;;5013159;28;20033;-73
2023/03/09 08:31:10;;;;;;;9.10;1.20;;;10.20;99.90;;;;;;4988697;28;20092;-72
2023/03/09 08:33:36;;;;;;;5.25;0.85;;;10.10;99.90;;;;;;5009207;28;20029;-71
2023/03/09 08:36:17;;;;;;;13.55;1.50;;;10.20;99.90;;;;;;5006824;28;20828;-70
2023/03/09 08:38:44;;;;;;;5.93;0.68;;;10.20;99.90;;;;;;5009335;28;20070;-69
2023/03/09 08:41:09;;;;;;;8.93;1.30;;;10.20;99.90;;;;;;5008456;28;20045;-73
2023/03/09 08:43:35;;;;;;;7.30;1.20;;;10.20;99.90;;;;;;5009789;28;20030;-70
2023/03/09 08:46:02;;;;;;;7.78;1.05;;;10.30;99.90;;;;;;5007702;28;20416;-72
2023/03/09 08:48:27;;;;;;;8.60;1.15;;;10.30;99.90;;;;;;5008662;28;20509;-72
2023/03/09 08:50:53;;;;;;;3.78;0.73;;;10.30;99.90;;;;;;5014784;28;20026;-70
2023/03/09 08:53:19;;;;;;;2.55;0.70;;;10.40;99.90;;;;;;5009664;28;20432;-69
2023/03/09 08:55:46;;;;;;;5.05;0.73;;;10.50;99.90;;;;;;5014989;28;20508;-70
2023/03/09 08:58:11;;;;;;;3.47;0.63;;;10.70;99.90;;;;;;5009032;28;20041;-70
2023/03/09 09:00:37;;;;;;;3.50;0.80;;;10.70;99.90;;;;;;5008849;28;20034;-69
2023/03/09 09:03:04;;;;;;;6.90;1.00;;;10.60;99.90;;;;;;5007020;28;20026;-69
2023/03/09 09:05:29;;;;;;;5.32;1.13;;;10.40;99.90;;;;;;4991091;28;20034;-70
2023/03/09 09:07:55;;;;;;;9.02;1.30;;;10.30;99.90;;;;;;5007076;28;20386;-69
2023/03/09 09:10:21;;;;;;;5.95;0.73;;;10.20;99.90;;;;;;5012679;28;20104;-70
2023/03/09 09:12:46;;;;;;;7.28;1.67;;;10.20;99.90;;;;;;5009364;28;20450;-71
2023/03/09 09:15:13;;;;;;;2.63;0.60;;;10.20;99.90;;;;;;5008182;28;20026;-71
2023/03/09 09:17:40;;;;;;;4.90;1.08;;;10.20;99.90;;;;;;5007641;28;20111;-71
2023/03/09 09:20:07;;;;;;;4.90;1.10;;;10.10;99.90;;;;;;5008239;28;20029;-73
2023/03/09 09:22:33;;;;;;;3.85;0.68;;;10.00;99.90;;;;;;5025923;28;20037;-70
2023/03/09 09:24:59;;;;;;;6.20;1.23;;;10.10;99.90;;;;;;5008083;28;20108;-71
2023/03/09 09:27:25;;;;;;;5.35;0.80;;;10.00;99.90;;;;;;5007165;28;20247;-72
2023/03/09 09:29:52;;;;;;;5.95;1.10;;;9.90;99.90;;;;;;5006390;28;20034;-71
2023/03/09 09:32:19;;;;;;;2.35;0.70;;;9.80;99.90;;;;;;4993919;28;20723;-69
2023/03/09 09:34:45;;;;;;;7.32;1.50;;;9.90;99.90;;;;;;5012263;28;20176;-71
2023/03/09 09:37:11;;;;;;;4.93;0.73;;;9.90;99.90;;;;;;5011741;28;20510;-70
2023/03/09 09:39:38;;;;;;;5.60;0.73;;;9.90;99.90;;;;;;5011648;28;20080;-70
2023/03/09 09:42:10;;;;;;;3.42;0.82;;;10.00;99.90;;;;;;5012835;28;20029;-71
2023/03/09 09:44:43;;;;;;;3.50;1.00;;;10.00;99.90;;;;;;5013108;28;20036;-69
2023/03/09 09:47:16;;;;;;;9.00;0.90;;;10.20;99.90;;;;;;5010704;28;20154;-72
2023/03/09 09:49:48;;;;;;;4.25;0.70;;;10.20;99.90;;;;;;5012587;28;20054;-70
2023/03/09 09:52:19;;;;;;;5.20;1.00;;;10.20;99.90;;;;;;5010330;28;20026;-70
2023/03/09 09:54:53;;;;;;;5.15;0.82;;;10.20;99.90;;;;;;5011145;28;20045;-69
2023/03/09 09:57:39;;;;;;;6.43;1.02;;;10.00;99.90;;;;;;4993024;28;20044;-70
2023/03/09 10:00:15;;;;;;;4.40;1.02;;;9.80;99.90;;;;;;5008994;28;20029;-69
2023/03/09 10:02:57;;;;;;;3.72;0.70;;;9.60;99.90;;;;;;5011716;28;20042;-71
2023/03/09 10:05:29;;;;;;;6.75;0.98;;;9.50;99.90;;;;;;5012608;28;20030;-71
2023/03/09 10:07:56;;;;;;;2.65;0.65;;;9.40;99.90;;;;;;5011116;28;20096;-70
2023/03/09 10:10:27;;;;;;;4.80;0.68;;;9.50;99.90;;;;;;5012430;28;20033;-71
2023/03/09 10:12:54;;;;;;;8.90;1.00;;;9.70;99.90;;;;;;5010662;28;20099;-70
2023/03/09 10:15:35;;;;;;;2.75;0.55;;;9.80;99.90;;;;;;5011580;28;20351;-69
2023/03/09 10:18:08;;;;;;;5.55;0.70;;;9.90;99.90;;;;;;5013720;28;20689;-70
2023/03/09 10:20:42;;;;;;;4.47;0.68;;;10.20;99.90;;;;;;5002733;28;20474;-70
2023/03/09 10:23:26;;;;;;;3.95;0.90;;;10.30;99.90;;;;;;5010640;28;20030;-70
2023/03/09 10:25:57;;;;;;;4.40;0.70;;;10.40;99.90;;;;;;5010631;28;20359;-68
2023/03/09 10:28:32;;;;;;;2.95;0.60;;;10.30;99.90;;;;;;5011940;28;20030;-73
2023/03/09 10:31:16;;;;;;;6.22;0.73;;;10.30;99.90;;;;;;5010656;28;20061;-71
2023/03/09 10:33:45;;;;;;;3.17;0.70;;;10.30;99.90;;;;;;5011994;28;20087;-71
2023/03/09 10:36:10;;;;;;;4.53;0.90;;;10.40;99.90;;;;;;5010757;28;20040;-71
2023/03/09 10:38:38;;;;;;;8.48;1.13;;;10.50;99.90;;;;;;5013262;28;20034;-71
2023/03/09 10:41:12;;;;;;;2.50;0.52;;;10.60;99.90;;;;;;5011008;28;20493;-70
2023/03/09 10:43:37;;;;;;;3.92;0.47;;;10.60;99.90;;;;;;5011324;28;20026;-70
2023/03/09 10:46:12;;;;;;;3.15;0.80;;;10.60;99.90;;;;;;5008785;28;20042;-72
2023/03/09 10:48:38;;;;;;;2.97;0.40;;;10.50;99.90;;;;;;5010742;28;20054;-70
2023/03/09 10:51:09;;;;;;;2.92;0.52;;;10.40;99.90;;;;;;5010621;28;20568;-71
2023/03/09 10:53:37;;;;;;;2.70;0.68;;;10.40;99.90;;;;;;5010332;28;20096;-72
2023/03/09 10:56:33;;;;;;;3.17;0.68;;;10.40;99.90;;;;;;5017003;28;20041;-70
2023/03/09 10:59:07;;;;;;;6.07;0.90;;;10.70;99.90;;;;;;5023540;28;20049;-70
2023/03/09 11:01:44;;;;;;;3.20;0.50;;;11.00;99.90;;;;;;5013879;28;20036;-70
2023/03/09 11:04:22;;;;;;;2.30;0.50;;;10.90;99.90;;;;;;4990869;28;20821;-70
2023/03/09 11:06:52;;;;;;;3.83;0.88;;;10.80;99.90;;;;;;5002439;28;20034;-70
2023/03/09 11:09:21;;;;;;;3.33;0.50;;;10.70;99.90;;;;;;5010918;28;20026;-70
2023/03/09 11:11:48;;;;;;;2.10;0.40;;;10.70;99.90;;;;;;5008921;28;20037;-70
2023/03/09 11:14:29;;;;;;;2.70;0.82;;;10.70;99.90;;;;;;5009866;28;20064;-70
2023/03/09 11:16:56;;;;;;;;;;;10.70;99.90;;;;;;5011710;28;20044;-70
2023/03/09 11:19:22;;;;;;;3.10;0.68;;;10.90;99.90;;;;;;4997931;28;19913;-70
2023/03/09 11:21:56;;;;;;;2.13;0.40;;;11.10;99.90;;;;;;5009107;28;20026;-70
2023/03/09 11:24:30;;;;;;;3.72;0.65;;;11.20;99.90;;;;;;5007541;28;20432;-70
2023/03/09 11:27:05;;;;;;;2.95;0.75;;;11.60;99.90;;;;;;5004514;28;20745;-70
2023/03/09 11:29:52;;;;;;;1.83;0.57;;;11.80;99.90;;;;;;5009868;28;20041;-70
2023/03/09 11:32:18;;;;;;;2.58;0.65;;;11.90;99.90;;;;;;5008614;28;20037;-70
2023/03/09 11:34:45;;;;;;;4.30;0.65;;;11.80;99.90;;;;;;5008090;28;20061;-74
2023/03/09 11:37:22;;;;;;;2.38;0.70;;;11.70;99.90;;;;;;5009336;28;20045;-70
2023/03/09 11:39:53;;;;;;;4.55;0.75;;;11.90;99.90;;;;;;5000978;28;20029;-70
2023/03/09 11:43:03;;;;;;;5.60;0.80;;;11.90;99.90;;;;;;5022135;28;20038;-71
2023/03/09 11:45:32;;;;;;;3.80;0.57;;;11.80;99.90;;;;;;4930616;29;20531;-71
2023/03/09 11:48:01;;;;;;;2.50;0.60;;;11.80;99.90;;;;;;4994733;28;20053;-72
2023/03/09 11:50:34;;;;;;;7.45;0.88;;;12.20;99.90;;;;;;5010711;28;20038;-73
2023/03/09 11:53:37;;;;;;;4.70;0.55;;;12.30;99.90;;;;;;5009619;28;20038;-71
2023/03/09 11:56:17;;;;;;;2.88;0.43;;;12.20;99.90;;;;;;5007867;28;20037;-72
2023/03/09 11:58:47;;;;;;;4.85;0.50;;;12.40;99.90;;;;;;4992939;28;20049;-72
2023/03/09 12:01:22;;;;;;;8.57;0.60;;;12.80;99.90;;;;;;5008727;28;20133;-71
2023/03/09 12:04:15;;;;;;;5.65;0.50;;;12.50;99.90;;;;;;5009986;28;20034;-70
2023/03/09 12:06:54;;;;;;;5.95;0.80;;;12.30;99.90;;;;;;4990945;28;20038;-72
2023/03/09 12:09:44;;;;;;;6.78;0.80;;;12.40;99.90;;;;;;5019046;28;20470;-71
2023/03/09 12:12:38;;;;;;;5.68;0.73;;;12.20;99.90;;;;;;5011062;28;20069;-71
2023/03/09 12:15:27;;;;;;;5.97;0.88;;;12.20;99.90;;;;;;5008482;28;20041;-70
2023/03/09 12:17:58;;;;;;;3.95;0.80;;;12.00;99.90;;;;;;4990487;28;20026;-71
2023/03/09 12:20:23;;;;;;;;;;;11.90;99.90;;;;;;5000218;28;20038;-71
2023/03/09 12:22:49;;;;;;;5.53;0.90;;;11.90;99.90;;;;;;5008208;28;19917;-70
2023/03/09 12:25:22;;;;;;;3.47;0.93;;;11.90;99.90;;;;;;5008797;28;20120;-70
2023/03/09 12:27:54;;;;;;;3.05;0.65;;;11.90;99.90;;;;;;5023151;28;20466;-72
2023/03/09 12:30:28;;;;;;;6.15;0.90;;;11.90;99.90;;;;;;5008208;28;20034;-71
2023/03/09 12:32:56;;;;;;;2.60;0.73;;;11.90;99.90;;;;;;5009008;28;20029;-71
2023/03/09 12:35:22;;;;;;;6.35;0.70;;;11.80;99.90;;;;;;5013773;28;20117;-71
2023/03/09 12:38:20;;;;;;;5.60;0.70;;;11.80;99.90;;;;;;5009782;28;20088;-71
2023/03/09 12:40:47;;;;;;;5.25;0.77;;;11.80;99.90;;;;;;4996522;28;20041;-70
2023/03/09 12:43:15;;;;;;;3.45;0.68;;;11.70;99.90;;;;;;5021763;28;20030;-71
2023/03/09 12:45:50;;;;;;;3.10;0.68;;;11.70;99.90;;;;;;5008465;28;20114;-71
2023/03/09 12:48:27;;;;;;;4.10;0.65;;;11.70;99.90;;;;;;5007853;28;20113;-71
2023/03/09 12:51:30;;;;;;;3.47;0.50;;;11.80;99.90;;;;;;5009358;28;20026;-71
2023/03/09 12:54:05;;;;;;;4.30;0.73;;;11.80;99.90;;;;;;4999236;28;20034;-70
2023/03/09 12:56:33;;;;;;;5.43;0.65;;;11.70;99.90;;;;;;4990197;28;20109;-70
2023/03/09 12:59:06;;;;;;;6.47;0.60;;;11.90;99.90;;;;;;5008418;28;20042;-69
2023/03/09 13:01:33;;;;;;;3.60;0.57;;;12.10;99.90;;;;;;5007634;28;20030;-71